Airfield :
LOGIN :

Register | Disclaimer

   EN    FR    IT 

 










Legend :    VFR   Marginal VFR   IFR   Intensive IFR   Very Intensive IFR
Visi :
Ceiling :
>= 8 km
>= 3000ft
5 to 8 km
1000 to 3000 ft
1500m to 5 km
500 to 1000 ft
800 to 1500m
200 to 500 ft
< 800m
< 200 ft
Symbols :   Thunderstorms  Fog  Heavy snow  Heavy precipitations  Wind > 20 kt
SIGMETs :     Misc.  Thunderstorms  Icing  Turbulence  Mountain Waves  Volcanic Ashes






- Airport Elevation : 194 ft
- IATA code : ANE


LFJR - Angers Marcé

CURRENT METAR :
  • 130930Z AUTO 29006KT 250V350 9999 BKN011 17/14 Q1016

EXPIRED METARs :
  • 130900Z AUTO 27005KT 230V350 9999 FEW006 BKN011 BKN018 16/14 Q1016
  • 130830Z AUTO 24005KT 210V280 9999 BKN005 BKN010 OVC014 14/14 Q1016
  • 130800Z AUTO 26003KT 210V280 8000 OVC003 14/13 Q1016
  • 130730Z AUTO VRB02KT 5000 BR OVC002 13/13 Q1016
  • 130700Z AUTO VRB02KT 3900 BR OVC002 13/13 Q1016
  • 130630Z AUTO 34003KT 280V020 5000 BR OVC003 13/13 Q1016
  • 130600Z AUTO VRB02KT 7000 OVC003 13/12 Q1016
  • 130530Z AUTO VRB02KT 6000 OVC005 12/12 Q1016
  • 130500Z AUTO 00000KT 0600 R26/1000U FG VV/// 11/10 Q1015

Expired Forecast.



MET'MAP, your aeronautical weather chart ! - Copyright ORBIFLY December 2007 - Disclaimer

ORBIFLY MET'MAP TEAM :

Programming & Development : Alexandra Zaïnal
Original concept : Baudouin d'Aumeries
Technical & hardware support : Manuel Goepfert
Assistance : Marc-Olivier Méhu




SOURCES & CREDITS :

   NOAA